Chadron Municipal Airport Chadron US
ICAO: KCDR
IATA: CDR
Category: Medium
Scheduled Services: No

Elevation: 3297 ft
TransAlt. 18000 ft.

Airport Communications:
ASOS:118.05
DENVER CNTR:127.95
COLUMBUS RDO:122.5
CTAF/UNICOM:122.8

KCDR Zoom In..

If you have problems with the map follow the link
https://www.worldairports.se/pages/airport.php?
ICAO=KCDR

Runways:

(A) RW 02 length 5998 ft width 100 ft
ILS 110.90 / hdg 24

(B) RW 11 length 4400 ft width 75 ft
---- / hdg 114

(C) RW 20 length 5998 ft width 100 ft
---- / hdg 204

(D) RW 29 length 4400 ft width 75 ft
---- / hdg 294

Location; KCDR
Day. 19 / Time. 15.53 Zulu
* Altimeter: 30.45
* Temperature: -08° c. -17.6°f.
* Wind from: 190° Speed 04 kn.
Dewpoint: -11° c.
Visibility: 10 Statute Miles.
Clouds: Clear (automated report).

KCDR 191553Z AUTO 19004KT 10SM CLR M08/M11 A3045 RMK AO2 SLP373 T10831111


Wind From 190°
Speed 04 kn.

 
 
jpsmedia worldairports.se 2020   terms of use